sensor_id;sensor_type;location;lat;lon;timestamp;pressure;altitude;pressure_sealevel;temperature;humidity
55079;BME280;55187;49.496;6.010;2022-12-07T00:01:21;97655.53;;;-0.74;100.00
55079;BME280;55187;49.496;6.010;2022-12-07T00:03:49;97650.44;;;-0.87;100.00
55079;BME280;55187;49.496;6.010;2022-12-07T00:06:17;97643.25;;;-0.72;100.00
55079;BME280;55187;49.496;6.010;2022-12-07T00:08:44;97640.03;;;-0.87;100.00
55079;BME280;55187;49.496;6.010;2022-12-07T00:11:14;97642.63;;;-0.87;100.00
55079;BME280;55187;49.496;6.010;2022-12-07T00:13:41;97638.88;;;-0.82;100.00
55079;BME280;55187;49.496;6.010;2022-12-07T00:16:14;97631.78;;;-0.80;100.00
55079;BME280;55187;49.496;6.010;2022-12-07T00:18:41;97633.91;;;-0.74;100.00
55079;BME280;55187;49.496;6.010;2022-12-07T00:21:13;97631.78;;;-0.80;100.00
55079;BME280;55187;49.496;6.010;2022-12-07T00:23:41;97631.09;;;-0.82;100.00
55079;BME280;55187;49.496;6.010;2022-12-07T00:26:11;97633.91;;;-0.74;100.00
55079;BME280;55187;49.496;6.010;2022-12-07T00:28:38;97636.81;;;-0.55;100.00
55079;BME280;55187;49.496;6.010;2022-12-07T00:31:07;97631.69;;;-0.68;100.00
55079;BME280;55187;49.496;6.010;2022-12-07T00:33:35;97633.72;;;-0.71;100.00
55079;BME280;55187;49.496;6.010;2022-12-07T00:36:10;97635.59;;;-0.73;100.00
55079;BME280;55187;49.496;6.010;2022-12-07T00:38:38;97630.25;;;-0.72;100.00
55079;BME280;55187;49.496;6.010;2022-12-07T00:41:07;97628.63;;;-0.61;100.00
55079;BME280;55187;49.496;6.010;2022-12-07T00:43:35;97626.75;;;-0.59;100.00
55079;BME280;55187;49.496;6.010;2022-12-07T00:46:02;97620.84;;;-0.50;100.00
55079;BME280;55187;49.496;6.010;2022-12-07T00:48:32;97618.59;;;-0.55;100.00
55079;BME280;55187;49.496;6.010;2022-12-07T00:50:58;97620.00;;;-0.51;100.00
55079;BME280;55187;49.496;6.010;2022-12-07T00:53:25;97612.81;;;-0.58;100.00
55079;BME280;55187;49.496;6.010;2022-12-07T00:55:51;97609.16;;;-0.45;100.00
55079;BME280;55187;49.496;6.010;2022-12-07T00:58:19;97597.56;;;-0.40;100.00
55079;BME280;55187;49.496;6.010;2022-12-07T01:00:45;97603.94;;;-0.56;100.00
55079;BME280;55187;49.496;6.010;2022-12-07T01:03:13;97602.41;;;-0.58;100.00
55079;BME280;55187;49.496;6.010;2022-12-07T01:05:49;97602.50;;;-0.60;100.00
55079;BME280;55187;49.496;6.010;2022-12-07T01:08:27;97601.94;;;-0.52;100.00
55079;BME280;55187;49.496;6.010;2022-12-07T01:11:06;97607.16;;;-0.41;100.00
55079;BME280;55187;49.496;6.010;2022-12-07T01:13:33;97604.41;;;-0.51;100.00
55079;BME280;55187;49.496;6.010;2022-12-07T01:16:04;97607.16;;;-0.41;100.00
55079;BME280;55187;49.496;6.010;2022-12-07T01:18:33;97607.63;;;-0.36;100.00
55079;BME280;55187;49.496;6.010;2022-12-07T01:21:02;97604.78;;;-0.44;100.00
55079;BME280;55187;49.496;6.010;2022-12-07T01:23:30;97600.75;;;-0.37;100.00
55079;BME280;55187;49.496;6.010;2022-12-07T01:25:57;97604.31;;;-0.27;100.00
55079;BME280;55187;49.496;6.010;2022-12-07T01:28:24;97599.81;;;-0.36;100.00
55079;BME280;55187;49.496;6.010;2022-12-07T01:30:58;97599.94;;;-0.26;100.00
55079;BME280;55187;49.496;6.010;2022-12-07T01:33:27;97596.25;;;-0.12;100.00
55079;BME280;55187;49.496;6.010;2022-12-07T01:36:00;97604.66;;;-0.31;100.00
55079;BME280;55187;49.496;6.010;2022-12-07T01:38:26;97603.25;;;-0.35;100.00
55079;BME280;55187;49.496;6.010;2022-12-07T01:40:54;97605.94;;;-0.14;100.00
55079;BME280;55187;49.496;6.010;2022-12-07T01:43:22;97618.13;;;-0.26;100.00
55079;BME280;55187;49.496;6.010;2022-12-07T01:45:49;97618.97;;;-0.26;100.00
55079;BME280;55187;49.496;6.010;2022-12-07T01:48:19;97608.44;;;-0.13;100.00
55079;BME280;55187;49.496;6.010;2022-12-07T01:50:48;97614.00;;;0.05;100.00
55079;BME280;55187;49.496;6.010;2022-12-07T01:53:16;97620.38;;;0.12;100.00
55079;BME280;55187;49.496;6.010;2022-12-07T01:58:20;97608.41;;;0.21;100.00
55079;BME280;55187;49.496;6.010;2022-12-07T02:00:47;97605.69;;;0.11;100.00
55079;BME280;55187;49.496;6.010;2022-12-07T02:03:24;97602.50;;;0.19;100.00
55079;BME280;55187;49.496;6.010;2022-12-07T02:05:53;97607.34;;;0.12;100.00
55079;BME280;55187;49.496;6.010;2022-12-07T02:08:20;97612.31;;;0.15;100.00
55079;BME280;55187;49.496;6.010;2022-12-07T02:10:46;97605.31;;;0.16;100.00
55079;BME280;55187;49.496;6.010;2022-12-07T02:13:19;97600.97;;;0.16;100.00
55079;BME280;55187;49.496;6.010;2022-12-07T02:18:50;97594.81;;;0.06;100.00
55079;BME280;55187;49.496;6.010;2022-12-07T02:21:43;97593.25;;;0.26;100.00
55079;BME280;55187;49.496;6.010;2022-12-07T02:24:23;97598.09;;;0.31;100.00
55079;BME280;55187;49.496;6.010;2022-12-07T02:27:07;97598.78;;;0.33;100.00
55079;BME280;55187;49.496;6.010;2022-12-07T02:29:55;97598.09;;;0.31;100.00
55079;BME280;55187;49.496;6.010;2022-12-07T02:32:45;97595.97;;;0.13;100.00
55079;BME280;55187;49.496;6.010;2022-12-07T02:40:57;97582.91;;;0.36;100.00
55079;BME280;55187;49.496;6.010;2022-12-07T02:43:34;97582.94;;;0.25;100.00
55079;BME280;55187;49.496;6.010;2022-12-07T02:46:09;97579.97;;;0.29;100.00
55079;BME280;55187;49.496;6.010;2022-12-07T02:48:46;97589.69;;;0.27;100.00
55079;BME280;55187;49.496;6.010;2022-12-07T02:51:13;97578.25;;;0.18;100.00
55079;BME280;55187;49.496;6.010;2022-12-07T02:53:42;97583.94;;;0.12;100.00
55079;BME280;55187;49.496;6.010;2022-12-07T02:56:31;97584.38;;;0.29;100.00
55079;BME280;55187;49.496;6.010;2022-12-07T03:02:03;97569.34;;;0.32;100.00
55079;BME280;55187;49.496;6.010;2022-12-07T03:07:25;97567.94;;;0.28;100.00
55079;BME280;55187;49.496;6.010;2022-12-07T03:13:17;97572.00;;;0.10;100.00
55079;BME280;55187;49.496;6.010;2022-12-07T03:15:58;97559.63;;;-0.20;100.00
55079;BME280;55187;49.496;6.010;2022-12-07T03:18:31;97556.91;;;-0.30;100.00
55079;BME280;55187;49.496;6.010;2022-12-07T03:21:02;97560.09;;;-0.27;100.00
55079;BME280;55187;49.496;6.010;2022-12-07T03:23:32;97555.63;;;-0.25;100.00
55079;BME280;55187;49.496;6.010;2022-12-07T03:26:00;97557.16;;;-0.33;100.00
55079;BME280;55187;49.496;6.010;2022-12-07T03:28:32;97552.56;;;-0.30;100.00
55079;BME280;55187;49.496;6.010;2022-12-07T03:31:05;97560.09;;;-0.27;100.00
55079;BME280;55187;49.496;6.010;2022-12-07T03:36:39;97559.75;;;-0.22;100.00
55079;BME280;55187;49.496;6.010;2022-12-07T03:39:24;97556.19;;;-0.10;100.00
55079;BME280;55187;49.496;6.010;2022-12-07T03:41:54;97553.22;;;-0.05;100.00
55079;BME280;55187;49.496;6.010;2022-12-07T03:44:22;97555.00;;;-0.06;100.00
55079;BME280;55187;49.496;6.010;2022-12-07T03:46:57;97558.06;;;-0.01;100.00
55079;BME280;55187;49.496;6.010;2022-12-07T03:49:49;97561.63;;;-0.02;100.00
55079;BME280;55187;49.496;6.010;2022-12-07T03:52:24;97559.81;;;0.10;100.00
55079;BME280;55187;49.496;6.010;2022-12-07T03:55:08;97557.09;;;0.12;100.00
55079;BME280;55187;49.496;6.010;2022-12-07T03:57:37;97552.13;;;0.09;100.00
55079;BME280;55187;49.496;6.010;2022-12-07T04:00:06;97553.28;;;0.16;100.00
55079;BME280;55187;49.496;6.010;2022-12-07T04:02:38;97546.78;;;0.22;100.00
55079;BME280;55187;49.496;6.010;2022-12-07T04:05:05;97551.75;;;0.13;100.00
55079;BME280;55187;49.496;6.010;2022-12-07T04:10:09;97546.78;;;0.22;100.00
55079;BME280;55187;49.496;6.010;2022-12-07T04:12:35;97553.38;;;0.26;100.00
55079;BME280;55187;49.496;6.010;2022-12-07T04:15:03;97549.94;;;0.25;100.00
55079;BME280;55187;49.496;6.010;2022-12-07T04:17:29;97548.19;;;0.26;100.00
55079;BME280;55187;49.496;6.010;2022-12-07T04:19:56;97552.47;;;0.15;100.00
55079;BME280;55187;49.496;6.010;2022-12-07T04:22:22;97549.81;;;0.27;100.00
55079;BME280;55187;49.496;6.010;2022-12-07T04:24:49;97553.22;;;0.38;100.00
55079;BME280;55187;49.496;6.010;2022-12-07T04:27:15;97549.09;;;0.36;100.00
55079;BME280;55187;49.496;6.010;2022-12-07T04:29:41;97545.03;;;0.43;100.00
55079;BME280;55187;49.496;6.010;2022-12-07T04:32:08;97553.44;;;0.47;100.00
55079;BME280;55187;49.496;6.010;2022-12-07T04:34:34;97546.31;;;0.49;100.00
55079;BME280;55187;49.496;6.010;2022-12-07T04:37:00;97548.66;;;0.52;100.00
55079;BME280;55187;49.496;6.010;2022-12-07T04:39:28;97544.28;;;0.52;100.00
55079;BME280;55187;49.496;6.010;2022-12-07T04:41:56;97541.22;;;0.47;100.00
55079;BME280;55187;49.496;6.010;2022-12-07T04:44:24;97544.31;;;0.41;100.00
55079;BME280;55187;49.496;6.010;2022-12-07T04:46:52;97535.78;;;0.50;100.00
55079;BME280;55187;49.496;6.010;2022-12-07T04:49:19;97539.72;;;0.45;100.00
55079;BME280;55187;49.496;6.010;2022-12-07T04:51:45;97536.66;;;0.39;100.00
55079;BME280;55187;49.496;6.010;2022-12-07T04:54:13;97545.56;;;0.37;100.00
55079;BME280;55187;49.496;6.010;2022-12-07T04:56:44;97542.31;;;0.45;100.00
55079;BME280;55187;49.496;6.010;2022-12-07T04:59:11;97548.66;;;0.52;100.00
55079;BME280;55187;49.496;6.010;2022-12-07T05:01:38;97544.09;;;0.44;100.00
55079;BME280;55187;49.496;6.010;2022-12-07T05:06:42;97539.22;;;0.51;100.00
55079;BME280;55187;49.496;6.010;2022-12-07T05:09:08;97534.00;;;0.51;100.00
55079;BME280;55187;49.496;6.010;2022-12-07T05:11:35;97538.16;;;0.53;100.00
55079;BME280;55187;49.496;6.010;2022-12-07T05:14:13;97542.66;;;0.51;100.00
55079;BME280;55187;49.496;6.010;2022-12-07T05:16:41;97538.16;;;0.53;100.00
55079;BME280;55187;49.496;6.010;2022-12-07T05:19:08;97543.78;;;0.58;100.00
55079;BME280;55187;49.496;6.010;2022-12-07T05:21:35;97541.06;;;0.60;100.00
55079;BME280;55187;49.496;6.010;2022-12-07T05:24:02;97537.38;;;0.62;100.00
55079;BME280;55187;49.496;6.010;2022-12-07T05:26:29;97535.59;;;0.63;100.00
55079;BME280;55187;49.496;6.010;2022-12-07T05:28:57;97531.22;;;0.63;100.00
55079;BME280;55187;49.496;6.010;2022-12-07T05:31:25;97528.16;;;0.58;100.00
55079;BME280;55187;49.496;6.010;2022-12-07T05:33:51;97531.47;;;0.60;100.00
55079;BME280;55187;49.496;6.010;2022-12-07T05:36:18;97526.72;;;0.66;100.00
55079;BME280;55187;49.496;6.010;2022-12-07T05:38:45;97535.22;;;0.68;100.00
55079;BME280;55187;49.496;6.010;2022-12-07T05:41:17;97534.09;;;0.60;100.00
55079;BME280;55187;49.496;6.010;2022-12-07T05:43:56;97530.84;;;0.68;100.00
55079;BME280;55187;49.496;6.010;2022-12-07T05:46:22;97527.16;;;0.71;100.00
55079;BME280;55187;49.496;6.010;2022-12-07T05:48:49;97527.78;;;0.63;100.00
55079;BME280;55187;49.496;6.010;2022-12-07T05:51:15;97535.53;;;0.53;100.00
55079;BME280;55187;49.496;6.010;2022-12-07T05:53:42;97538.47;;;0.60;100.00
55079;BME280;55187;49.496;6.010;2022-12-07T05:56:08;97527.72;;;0.53;100.00
55079;BME280;55187;49.496;6.010;2022-12-07T05:58:34;97532.69;;;0.56;100.00
55079;BME280;55187;49.496;6.010;2022-12-07T06:01:09;97537.56;;;0.71;100.00
55079;BME280;55187;49.496;6.010;2022-12-07T06:03:42;97540.06;;;0.72;100.00
55079;BME280;55187;49.496;6.010;2022-12-07T06:06:08;97540.88;;;0.73;100.00
55079;BME280;55187;49.496;6.010;2022-12-07T06:08:34;97540.94;;;0.82;100.00
55079;BME280;55187;49.496;6.010;2022-12-07T06:11:01;97548.75;;;0.82;100.00
55079;BME280;55187;49.496;6.010;2022-12-07T06:13:39;97547.50;;;0.77;100.00
55079;BME280;55187;49.496;6.010;2022-12-07T06:16:06;97549.44;;;0.63;100.00
55079;BME280;55187;49.496;6.010;2022-12-07T06:18:33;97552.25;;;0.51;100.00
55079;BME280;55187;49.496;6.010;2022-12-07T06:20:59;97553.88;;;0.52;100.00
55079;BME280;55187;49.496;6.010;2022-12-07T06:23:25;97539.09;;;0.73;100.00
55079;BME280;55187;49.496;6.010;2022-12-07T06:25:52;97543.84;;;0.68;100.00
55079;BME280;55187;49.496;6.010;2022-12-07T06:28:18;97556.88;;;0.68;100.00
55079;BME280;55187;49.496;6.010;2022-12-07T06:30:45;97555.47;;;0.64;100.00
55079;BME280;55187;49.496;6.010;2022-12-07T06:33:12;97548.94;;;0.49;100.00
55079;BME280;55187;49.496;6.010;2022-12-07T06:35:38;97557.31;;;0.52;100.00
55079;BME280;55187;49.496;6.010;2022-12-07T06:38:04;97550.31;;;0.53;100.00
55079;BME280;55187;49.496;6.010;2022-12-07T06:40:31;97548.66;;;0.52;100.00
55079;BME280;55187;49.496;6.010;2022-12-07T06:42:57;97552.34;;;0.49;100.00
55079;BME280;55187;49.496;6.010;2022-12-07T06:45:24;97550.00;;;0.46;100.00
55079;BME280;55187;49.496;6.010;2022-12-07T06:47:51;97541.72;;;0.41;100.00
55079;BME280;55187;49.496;6.010;2022-12-07T06:50:17;97547.41;;;0.46;100.00
55079;BME280;55187;49.496;6.010;2022-12-07T06:52:44;97546.19;;;0.50;100.00
55079;BME280;55187;49.496;6.010;2022-12-07T06:55:10;97541.22;;;0.47;100.00
55079;BME280;55187;49.496;6.010;2022-12-07T06:57:36;97535.81;;;0.39;100.00
55079;BME280;55187;49.496;6.010;2022-12-07T07:00:03;97545.00;;;0.54;100.00
55079;BME280;55187;49.496;6.010;2022-12-07T07:02:30;97542.13;;;0.57;100.00
55079;BME280;55187;49.496;6.010;2022-12-07T07:04:56;97546.50;;;0.57;100.00
55079;BME280;55187;49.496;6.010;2022-12-07T07:07:23;97535.75;;;0.29;100.00
55079;BME280;55187;49.496;6.010;2022-12-07T07:09:49;97543.56;;;0.50;100.00
55079;BME280;55187;49.496;6.010;2022-12-07T07:12:16;97544.84;;;0.35;100.00
55079;BME280;55187;49.496;6.010;2022-12-07T07:14:42;97542.81;;;0.38;100.00
55079;BME280;55187;49.496;6.010;2022-12-07T07:17:09;97544.91;;;0.45;100.00
55079;BME280;55187;49.496;6.010;2022-12-07T07:19:35;97557.22;;;0.43;100.00
55079;BME280;55187;49.496;6.010;2022-12-07T07:22:03;97553.66;;;0.44;100.00
55079;BME280;55187;49.496;6.010;2022-12-07T07:24:30;97547.84;;;0.51;100.00
55079;BME280;55187;49.496;6.010;2022-12-07T07:26:56;97551.75;;;0.46;100.00
55079;BME280;55187;49.496;6.010;2022-12-07T07:29:23;97558.03;;;0.43;100.00
55079;BME280;55187;49.496;6.010;2022-12-07T07:31:49;97562.81;;;0.38;100.00
55079;BME280;55187;49.496;6.010;2022-12-07T07:34:16;97566.31;;;0.48;100.00
55079;BME280;55187;49.496;6.010;2022-12-07T07:36:42;97563.69;;;0.48;100.00
55079;BME280;55187;49.496;6.010;2022-12-07T07:39:09;97569.28;;;0.44;100.00
55079;BME280;55187;49.496;6.010;2022-12-07T07:41:38;97572.09;;;0.52;100.00
55079;BME280;55187;49.496;6.010;2022-12-07T07:44:09;97565.16;;;0.41;100.00
55079;BME280;55187;49.496;6.010;2022-12-07T07:46:36;97568.91;;;0.48;100.00
55079;BME280;55187;49.496;6.010;2022-12-07T07:49:02;97577.34;;;0.40;100.00
55079;BME280;55187;49.496;6.010;2022-12-07T07:51:29;97576.16;;;0.45;100.00
55079;BME280;55187;49.496;6.010;2022-12-07T07:54:04;97585.56;;;0.57;100.00
55079;BME280;55187;49.496;6.010;2022-12-07T07:56:30;97581.41;;;0.66;100.00
55079;BME280;55187;49.496;6.010;2022-12-07T07:58:57;97581.28;;;0.67;100.00
55079;BME280;55187;49.496;6.010;2022-12-07T08:01:23;97584.44;;;0.71;100.00
55079;BME280;55187;49.496;6.010;2022-12-07T08:03:49;97579.81;;;0.53;100.00
55079;BME280;55187;49.496;6.010;2022-12-07T08:06:16;97585.16;;;0.73;100.00
55079;BME280;55187;49.496;6.010;2022-12-07T08:08:42;97585.78;;;0.65;100.00
55079;BME280;55187;49.496;6.010;2022-12-07T08:11:09;97584.97;;;0.65;100.00
55079;BME280;55187;49.496;6.010;2022-12-07T08:13:36;97588.38;;;0.65;100.00
55079;BME280;55187;49.496;6.010;2022-12-07T08:16:04;97587.63;;;0.74;100.00
55079;BME280;55187;49.496;6.010;2022-12-07T08:18:38;97598.50;;;0.79;100.00
55079;BME280;55187;49.496;6.010;2022-12-07T08:21:06;97600.69;;;0.95;100.00
55079;BME280;55187;49.496;6.010;2022-12-07T08:23:33;97596.00;;;0.78;100.00
55079;BME280;55187;49.496;6.010;2022-12-07T08:26:01;97603.94;;;0.88;100.00
55079;BME280;55187;49.496;6.010;2022-12-07T08:28:28;97598.72;;;1.09;100.00
55079;BME280;55187;49.496;6.010;2022-12-07T08:31:02;97593.56;;;0.97;100.00
55079;BME280;55187;49.496;6.010;2022-12-07T08:33:33;97597.94;;;1.39;100.00
55079;BME280;55187;49.496;6.010;2022-12-07T08:36:01;97597.31;;;1.56;100.00
55079;BME280;55187;49.496;6.010;2022-12-07T08:38:28;97593.50;;;1.60;100.00
55079;BME280;55187;49.496;6.010;2022-12-07T08:40:55;97598.41;;;1.54;100.00
55079;BME280;55187;49.496;6.010;2022-12-07T08:43:22;97598.94;;;1.48;100.00
55079;BME280;55187;49.496;6.010;2022-12-07T08:48:32;97606.81;;;1.57;100.00
55079;BME280;55187;49.496;6.010;2022-12-07T08:51:01;97609.34;;;1.68;100.00
55079;BME280;55187;49.496;6.010;2022-12-07T08:53:28;97605.53;;;1.73;100.00
55079;BME280;55187;49.496;6.010;2022-12-07T08:55:56;97603.03;;;1.71;100.00
55079;BME280;55187;49.496;6.010;2022-12-07T08:58:33;97596.81;;;1.62;100.00
55079;BME280;55187;49.496;6.010;2022-12-07T09:00:59;97603.56;;;1.65;100.00
55079;BME280;55187;49.496;6.010;2022-12-07T09:03:33;97596.50;;;1.56;100.00
55079;BME280;55187;49.496;6.010;2022-12-07T09:06:02;97606.94;;;1.56;100.00
55079;BME280;55187;49.496;6.010;2022-12-07T09:08:35;97600.81;;;1.66;100.00
55079;BME280;55187;49.496;6.010;2022-12-07T09:11:02;97597.59;;;1.53;100.00
55079;BME280;55187;49.496;6.010;2022-12-07T09:13:29;97599.47;;;1.72;100.00
55079;BME280;55187;49.496;6.010;2022-12-07T09:15:55;97608.16;;;1.52;100.00
55079;BME280;55187;49.496;6.010;2022-12-07T09:18:22;97598.19;;;1.97;100.00
55079;BME280;55187;49.496;6.010;2022-12-07T09:20:48;97604.75;;;1.82;100.00
55079;BME280;55187;49.496;6.010;2022-12-07T09:23:14;97611.09;;;1.89;100.00
55079;BME280;55187;49.496;6.010;2022-12-07T09:25:41;97612.22;;;2.06;100.00
55079;BME280;55187;49.496;6.010;2022-12-07T09:28:07;97596.75;;;2.34;100.00
55079;BME280;55187;49.496;6.010;2022-12-07T09:30:35;97595.97;;;1.93;100.00
55079;BME280;55187;49.496;6.010;2022-12-07T09:33:02;97592.53;;;1.92;100.00
55079;BME280;55187;49.496;6.010;2022-12-07T09:35:28;97597.97;;;2.20;100.00
55079;BME280;55187;49.496;6.010;2022-12-07T09:37:55;97601.47;;;2.40;100.00
55079;BME280;55187;49.496;6.010;2022-12-07T09:40:23;97587.41;;;2.31;100.00
55079;BME280;55187;49.496;6.010;2022-12-07T09:42:52;97597.34;;;2.37;100.00
55079;BME280;55187;49.496;6.010;2022-12-07T09:45:26;97593.34;;;2.43;100.00
55079;BME280;55187;49.496;6.010;2022-12-07T09:47:54;97591.25;;;2.27;100.00
55079;BME280;55187;49.496;6.010;2022-12-07T09:50:24;97579.28;;;2.24;100.00
55079;BME280;55187;49.496;6.010;2022-12-07T09:52:52;97587.00;;;2.26;100.00
55079;BME280;55187;49.496;6.010;2022-12-07T09:55:26;97583.72;;;2.34;100.00
55079;BME280;55187;49.496;6.010;2022-12-07T09:57:53;97582.59;;;2.17;100.00
55079;BME280;55187;49.496;6.010;2022-12-07T10:00:22;97584.00;;;2.50;100.00
55079;BME280;55187;49.496;6.010;2022-12-07T10:03:01;97578.78;;;2.60;100.00
55079;BME280;55187;49.496;6.010;2022-12-07T10:05:31;97585.53;;;1.93;100.00
55079;BME280;55187;49.496;6.010;2022-12-07T10:07:58;97575.72;;;2.25;100.00
55079;BME280;55187;49.496;6.010;2022-12-07T10:10:29;97566.31;;;1.94;100.00
55079;BME280;55187;49.496;6.010;2022-12-07T10:13:09;97565.03;;;2.48;100.00
55079;BME280;55187;49.496;6.010;2022-12-07T10:15:49;97572.34;;;3.50;100.00
55079;BME280;55187;49.496;6.010;2022-12-07T10:18:30;97565.66;;;5.10;95.64
55079;BME280;55187;49.496;6.010;2022-12-07T10:21:10;97552.31;;;5.56;89.51
55079;BME280;55187;49.496;6.010;2022-12-07T10:23:39;97558.91;;;3.63;93.76
55079;BME280;55187;49.496;6.010;2022-12-07T10:26:21;97564.41;;;3.32;98.63
55079;BME280;55187;49.496;6.010;2022-12-07T10:28:51;97562.28;;;2.79;99.97
55079;BME280;55187;49.496;6.010;2022-12-07T10:31:26;97558.69;;;2.80;100.00
55079;BME280;55187;49.496;6.010;2022-12-07T10:33:59;97554.56;;;2.58;100.00
55079;BME280;55187;49.496;6.010;2022-12-07T10:36:38;97554.44;;;2.40;100.00
55079;BME280;55187;49.496;6.010;2022-12-07T10:39:17;97553.75;;;2.57;100.00
55079;BME280;55187;49.496;6.010;2022-12-07T10:41:57;97537.41;;;2.65;100.00
55079;BME280;55187;49.496;6.010;2022-12-07T10:44:30;97540.28;;;2.52;100.00
55079;BME280;55187;49.496;6.010;2022-12-07T10:47:13;97546.34;;;2.43;100.00
55079;BME280;55187;49.496;6.010;2022-12-07T10:50:01;97550.06;;;2.69;100.00
55079;BME280;55187;49.496;6.010;2022-12-07T10:53:10;97549.59;;;3.03;100.00
55079;BME280;55187;49.496;6.010;2022-12-07T10:55:56;97549.19;;;2.98;100.00
55079;BME280;55187;49.496;6.010;2022-12-07T11:01:25;97532.56;;;2.99;100.00
55079;BME280;55187;49.496;6.010;2022-12-07T11:07:14;97518.50;;;3.00;99.43
55079;BME280;55187;49.496;6.010;2022-12-07T11:15:31;97512.50;;;2.41;100.00
55079;BME280;55187;49.496;6.010;2022-12-07T11:18:11;97518.28;;;2.64;100.00
55079;BME280;55187;49.496;6.010;2022-12-07T11:20:52;97507.41;;;2.69;100.00
55079;BME280;55187;49.496;6.010;2022-12-07T11:26:14;97513.16;;;2.92;100.00
55079;BME280;55187;49.496;6.010;2022-12-07T11:31:49;97504.50;;;2.91;100.00
55079;BME280;55187;49.496;6.010;2022-12-07T11:34:39;97504.69;;;2.51;100.00
55079;BME280;55187;49.496;6.010;2022-12-07T11:37:14;97492.28;;;2.72;100.00
55079;BME280;55187;49.496;6.010;2022-12-07T11:39:51;97476.28;;;2.95;100.00
55079;BME280;55187;49.496;6.010;2022-12-07T11:42:24;97473.69;;;2.95;100.00
55079;BME280;55187;49.496;6.010;2022-12-07T11:48:01;97466.16;;;2.53;100.00
55079;BME280;55187;49.496;6.010;2022-12-07T11:50:41;97469.63;;;2.44;100.00
55079;BME280;55187;49.496;6.010;2022-12-07T11:56:12;97468.72;;;3.02;100.00
55079;BME280;55187;49.496;6.010;2022-12-07T11:58:54;97463.16;;;3.14;100.00
55079;BME280;55187;49.496;6.010;2022-12-07T12:01:42;97475.16;;;3.07;100.00
55079;BME280;55187;49.496;6.010;2022-12-07T12:06:39;97468.19;;;2.88;100.00
55079;BME280;55187;49.496;6.010;2022-12-07T12:09:29;97465.09;;;2.56;100.00
55079;BME280;55187;49.496;6.010;2022-12-07T12:18:04;97467.44;;;2.49;100.00
55079;BME280;55187;49.496;6.010;2022-12-07T12:21:04;97466.72;;;2.66;100.00
55079;BME280;55187;49.496;6.010;2022-12-07T12:23:59;97461.50;;;2.66;100.00
55079;BME280;55187;49.496;6.010;2022-12-07T12:26:31;97457.91;;;2.77;100.00
55079;BME280;55187;49.496;6.010;2022-12-07T12:29:00;97455.41;;;2.76;100.00
55079;BME280;55187;49.496;6.010;2022-12-07T12:31:36;97449.41;;;2.65;100.00
55079;BME280;55187;49.496;6.010;2022-12-07T12:41:05;97442.97;;;3.34;100.00
55079;BME280;55187;49.496;6.010;2022-12-07T12:43:41;97438.69;;;3.43;100.00
55079;BME280;55187;49.496;6.010;2022-12-07T12:49:36;97430.81;;;3.15;100.00
55079;BME280;55187;49.496;6.010;2022-12-07T12:55:15;97428.53;;;3.03;100.00
55079;BME280;55187;49.496;6.010;2022-12-07T12:57:55;97433.22;;;2.99;100.00
55079;BME280;55187;49.496;6.010;2022-12-07T13:00:33;97415.34;;;2.94;100.00
55079;BME280;55187;49.496;6.010;2022-12-07T13:03:23;97427.09;;;3.18;100.00
55079;BME280;55187;49.496;6.010;2022-12-07T13:08:50;97429.47;;;3.39;100.00
55079;BME280;55187;49.496;6.010;2022-12-07T13:11:24;97430.66;;;3.45;100.00
55079;BME280;55187;49.496;6.010;2022-12-07T13:14:37;97423.25;;;3.40;100.00
55079;BME280;55187;49.496;6.010;2022-12-07T13:17:08;97419.94;;;3.10;100.00
55079;BME280;55187;49.496;6.010;2022-12-07T13:19:55;97422.44;;;3.12;100.00
55079;BME280;55187;49.496;6.010;2022-12-07T13:22:42;97417.28;;;2.83;100.00
55079;BME280;55187;49.496;6.010;2022-12-07T13:25:12;97414.78;;;2.54;100.00
55079;BME280;55187;49.496;6.010;2022-12-07T13:28:19;97411.03;;;2.66;100.00
55079;BME280;55187;49.496;6.010;2022-12-07T13:31:00;97407.88;;;2.52;100.00
55079;BME280;55187;49.496;6.010;2022-12-07T13:33:29;97398.94;;;2.55;100.00
55079;BME280;55187;49.496;6.010;2022-12-07T13:35:56;97397.75;;;2.40;100.00
55079;BME280;55187;49.496;6.010;2022-12-07T13:38:30;97393.47;;;2.58;100.00
55079;BME280;55187;49.496;6.010;2022-12-07T13:43:27;97394.88;;;2.90;100.00
55079;BME280;55187;49.496;6.010;2022-12-07T13:45:58;97389.09;;;2.86;100.00
55079;BME280;55187;49.496;6.010;2022-12-07T13:48:36;97389.44;;;2.64;100.00
55079;BME280;55187;49.496;6.010;2022-12-07T13:51:17;97388.63;;;2.63;100.00
55079;BME280;55187;49.496;6.010;2022-12-07T13:53:50;97378.22;;;2.44;100.00
55079;BME280;55187;49.496;6.010;2022-12-07T13:56:17;97384.44;;;2.14;100.00
55079;BME280;55187;49.496;6.010;2022-12-07T13:58:44;97387.63;;;1.78;100.00
55079;BME280;55187;49.496;6.010;2022-12-07T14:01:14;97390.66;;;1.74;100.00
55079;BME280;55187;49.496;6.010;2022-12-07T14:03:40;97388.56;;;1.58;100.00
55079;BME280;55187;49.496;6.010;2022-12-07T14:06:19;97384.97;;;1.49;100.00
55079;BME280;55187;49.496;6.010;2022-12-07T14:09:06;97381.84;;;1.45;100.00
55079;BME280;55187;49.496;6.010;2022-12-07T14:11:40;97380.97;;;1.35;100.00
55079;BME280;55187;49.496;6.010;2022-12-07T14:14:13;97383.00;;;1.22;100.00
55079;BME280;55187;49.496;6.010;2022-12-07T14:17:00;97376.94;;;1.12;100.00
55079;BME280;55187;49.496;6.010;2022-12-07T14:22:06;97367.81;;;0.87;100.00
55079;BME280;55187;49.496;6.010;2022-12-07T14:24:41;97372.72;;;0.80;100.00
55079;BME280;55187;49.496;6.010;2022-12-07T14:27:17;97368.22;;;0.92;100.00
55079;BME280;55187;49.496;6.010;2022-12-07T14:29:44;97365.53;;;1.03;100.00
55079;BME280;55187;49.496;6.010;2022-12-07T14:32:25;97369.75;;;0.94;100.00
55079;BME280;55187;49.496;6.010;2022-12-07T14:35:10;97365.09;;;0.88;100.00
55079;BME280;55187;49.496;6.010;2022-12-07T14:37:39;97359.28;;;0.75;100.00
55079;BME280;55187;49.496;6.010;2022-12-07T14:40:16;97365.00;;;1.09;100.00
55079;BME280;55187;49.496;6.010;2022-12-07T14:42:44;97354.28;;;0.93;100.00
55079;BME280;55187;49.496;6.010;2022-12-07T14:47:47;97357.25;;;0.57;100.00